sensor_id;sensor_type;location;lat;lon;timestamp;P1;durP1;ratioP1;P2;durP2;ratioP2
70367;SDS011;57789;53.868;10.728;2022-12-15T00:00:00;35.67;;;17.00;;
70367;SDS011;57789;53.868;10.728;2022-12-15T00:02:44;40.03;;;18.70;;
70367;SDS011;57789;53.868;10.728;2022-12-15T00:05:28;32.58;;;16.27;;
70367;SDS011;57789;53.868;10.728;2022-12-15T00:08:12;36.20;;;16.50;;
70367;SDS011;57789;53.868;10.728;2022-12-15T00:10:57;40.90;;;18.52;;
70367;SDS011;57789;53.868;10.728;2022-12-15T00:13:44;38.65;;;18.98;;
70367;SDS011;57789;53.868;10.728;2022-12-15T00:16:28;51.25;;;19.27;;
70367;SDS011;57789;53.868;10.728;2022-12-15T00:19:13;38.67;;;16.80;;
70367;SDS011;57789;53.868;10.728;2022-12-15T00:21:57;39.75;;;17.95;;
70367;SDS011;57789;53.868;10.728;2022-12-15T00:24:41;44.60;;;19.35;;
70367;SDS011;57789;53.868;10.728;2022-12-15T00:27:25;37.15;;;16.92;;
70367;SDS011;57789;53.868;10.728;2022-12-15T00:30:09;34.33;;;16.80;;
70367;SDS011;57789;53.868;10.728;2022-12-15T00:32:54;35.80;;;16.45;;
70367;SDS011;57789;53.868;10.728;2022-12-15T00:35:38;33.20;;;16.67;;
70367;SDS011;57789;53.868;10.728;2022-12-15T00:38:22;42.60;;;19.23;;
70367;SDS011;57789;53.868;10.728;2022-12-15T00:41:06;30.05;;;16.00;;
70367;SDS011;57789;53.868;10.728;2022-12-15T00:43:33;35.67;;;15.67;;
70367;SDS011;57789;53.868;10.728;2022-12-15T00:45:59;41.10;;;16.75;;
70367;SDS011;57789;53.868;10.728;2022-12-15T00:48:44;40.33;;;17.90;;
70367;SDS011;57789;53.868;10.728;2022-12-15T00:51:10;35.03;;;16.90;;
70367;SDS011;57789;53.868;10.728;2022-12-15T00:53:36;38.05;;;17.75;;
70367;SDS011;57789;53.868;10.728;2022-12-15T00:56:20;39.70;;;16.83;;
70367;SDS011;57789;53.868;10.728;2022-12-15T00:59:04;43.40;;;16.90;;
70367;SDS011;57789;53.868;10.728;2022-12-15T01:01:49;36.17;;;16.48;;
70367;SDS011;57789;53.868;10.728;2022-12-15T01:04:33;38.40;;;18.10;;
70367;SDS011;57789;53.868;10.728;2022-12-15T01:07:17;40.28;;;16.98;;
70367;SDS011;57789;53.868;10.728;2022-12-15T01:10:01;36.35;;;16.25;;
70367;SDS011;57789;53.868;10.728;2022-12-15T01:12:45;38.10;;;15.95;;
70367;SDS011;57789;53.868;10.728;2022-12-15T01:15:30;44.45;;;16.83;;
70367;SDS011;57789;53.868;10.728;2022-12-15T01:18:14;34.85;;;16.95;;
70367;SDS011;57789;53.868;10.728;2022-12-15T01:21:00;31.58;;;16.08;;
70367;SDS011;57789;53.868;10.728;2022-12-15T01:23:27;41.92;;;16.60;;
70367;SDS011;57789;53.868;10.728;2022-12-15T01:25:54;35.95;;;16.17;;
70367;SDS011;57789;53.868;10.728;2022-12-15T01:28:20;34.47;;;15.70;;
70367;SDS011;57789;53.868;10.728;2022-12-15T01:30:47;36.20;;;15.82;;
70367;SDS011;57789;53.868;10.728;2022-12-15T01:33:14;30.52;;;15.40;;
70367;SDS011;57789;53.868;10.728;2022-12-15T01:35:40;40.30;;;17.88;;
70367;SDS011;57789;53.868;10.728;2022-12-15T01:38:06;39.87;;;17.60;;
70367;SDS011;57789;53.868;10.728;2022-12-15T01:40:32;36.70;;;15.60;;
70367;SDS011;57789;53.868;10.728;2022-12-15T01:43:18;33.60;;;14.90;;
70367;SDS011;57789;53.868;10.728;2022-12-15T01:45:55;35.67;;;16.02;;
70367;SDS011;57789;53.868;10.728;2022-12-15T01:53:53;40.00;;;16.48;;
70367;SDS011;57789;53.868;10.728;2022-12-15T01:56:24;31.33;;;14.80;;
70367;SDS011;57789;53.868;10.728;2022-12-15T01:58:52;34.60;;;14.63;;
70367;SDS011;57789;53.868;10.728;2022-12-15T02:01:21;36.05;;;15.70;;
70367;SDS011;57789;53.868;10.728;2022-12-15T02:03:47;31.83;;;14.47;;
70367;SDS011;57789;53.868;10.728;2022-12-15T02:06:13;32.07;;;14.33;;
70367;SDS011;57789;53.868;10.728;2022-12-15T02:08:41;31.45;;;14.20;;
70367;SDS011;57789;53.868;10.728;2022-12-15T02:11:14;32.78;;;13.73;;
70367;SDS011;57789;53.868;10.728;2022-12-15T02:13:59;31.55;;;13.80;;
70367;SDS011;57789;53.868;10.728;2022-12-15T02:16:30;34.10;;;14.15;;
70367;SDS011;57789;53.868;10.728;2022-12-15T02:22:12;30.48;;;15.13;;
70367;SDS011;57789;53.868;10.728;2022-12-15T02:25:04;31.05;;;15.10;;
70367;SDS011;57789;53.868;10.728;2022-12-15T02:30:37;31.45;;;15.63;;
70367;SDS011;57789;53.868;10.728;2022-12-15T02:33:32;32.65;;;14.60;;
70367;SDS011;57789;53.868;10.728;2022-12-15T02:36:25;33.85;;;15.07;;
70367;SDS011;57789;53.868;10.728;2022-12-15T02:38:56;36.75;;;15.40;;
70367;SDS011;57789;53.868;10.728;2022-12-15T02:41:38;37.93;;;15.33;;
70367;SDS011;57789;53.868;10.728;2022-12-15T02:44:07;30.95;;;14.48;;
70367;SDS011;57789;53.868;10.728;2022-12-15T02:49:36;37.15;;;14.18;;
70367;SDS011;57789;53.868;10.728;2022-12-15T02:55:16;31.40;;;15.13;;
70367;SDS011;57789;53.868;10.728;2022-12-15T02:57:52;29.95;;;13.45;;
70367;SDS011;57789;53.868;10.728;2022-12-15T03:00:25;26.58;;;13.18;;
70367;SDS011;57789;53.868;10.728;2022-12-15T03:02:53;34.13;;;14.90;;
70367;SDS011;57789;53.868;10.728;2022-12-15T03:05:20;31.77;;;14.23;;
70367;SDS011;57789;53.868;10.728;2022-12-15T03:07:48;30.25;;;14.20;;
70367;SDS011;57789;53.868;10.728;2022-12-15T03:10:15;33.65;;;15.10;;
70367;SDS011;57789;53.868;10.728;2022-12-15T03:12:41;30.65;;;14.20;;
70367;SDS011;57789;53.868;10.728;2022-12-15T03:15:07;27.40;;;12.77;;
70367;SDS011;57789;53.868;10.728;2022-12-15T03:17:33;30.63;;;13.40;;
70367;SDS011;57789;53.868;10.728;2022-12-15T03:19:59;28.43;;;14.17;;
70367;SDS011;57789;53.868;10.728;2022-12-15T03:22:24;36.03;;;14.33;;
70367;SDS011;57789;53.868;10.728;2022-12-15T03:24:50;33.60;;;14.57;;
70367;SDS011;57789;53.868;10.728;2022-12-15T03:27:16;27.23;;;13.33;;
70367;SDS011;57789;53.868;10.728;2022-12-15T03:29:41;28.13;;;13.53;;
70367;SDS011;57789;53.868;10.728;2022-12-15T03:32:07;30.50;;;13.23;;
70367;SDS011;57789;53.868;10.728;2022-12-15T03:34:33;33.87;;;13.90;;
70367;SDS011;57789;53.868;10.728;2022-12-15T03:36:58;41.40;;;14.43;;
70367;SDS011;57789;53.868;10.728;2022-12-15T03:39:25;28.38;;;12.73;;
70367;SDS011;57789;53.868;10.728;2022-12-15T03:41:50;25.47;;;12.13;;
70367;SDS011;57789;53.868;10.728;2022-12-15T03:44:16;29.83;;;13.47;;
70367;SDS011;57789;53.868;10.728;2022-12-15T03:46:41;33.40;;;14.60;;
70367;SDS011;57789;53.868;10.728;2022-12-15T03:49:07;32.80;;;13.57;;
70367;SDS011;57789;53.868;10.728;2022-12-15T03:51:33;32.10;;;14.53;;
70367;SDS011;57789;53.868;10.728;2022-12-15T03:53:58;26.70;;;11.70;;
70367;SDS011;57789;53.868;10.728;2022-12-15T03:56:24;29.40;;;13.67;;
70367;SDS011;57789;53.868;10.728;2022-12-15T03:58:50;31.63;;;12.87;;
70367;SDS011;57789;53.868;10.728;2022-12-15T04:01:25;27.63;;;12.53;;
70367;SDS011;57789;53.868;10.728;2022-12-15T04:03:55;28.42;;;13.55;;
70367;SDS011;57789;53.868;10.728;2022-12-15T04:06:22;28.08;;;12.10;;
70367;SDS011;57789;53.868;10.728;2022-12-15T04:08:48;29.03;;;13.33;;
70367;SDS011;57789;53.868;10.728;2022-12-15T04:11:14;24.98;;;11.45;;
70367;SDS011;57789;53.868;10.728;2022-12-15T04:13:40;29.27;;;12.30;;
70367;SDS011;57789;53.868;10.728;2022-12-15T04:16:06;24.87;;;10.57;;
70367;SDS011;57789;53.868;10.728;2022-12-15T04:18:32;25.73;;;12.27;;
70367;SDS011;57789;53.868;10.728;2022-12-15T04:20:57;26.70;;;11.53;;
70367;SDS011;57789;53.868;10.728;2022-12-15T04:23:23;25.90;;;12.60;;
70367;SDS011;57789;53.868;10.728;2022-12-15T04:25:49;28.00;;;11.80;;
70367;SDS011;57789;53.868;10.728;2022-12-15T04:28:33;22.98;;;12.45;;
70367;SDS011;57789;53.868;10.728;2022-12-15T04:31:18;23.20;;;10.68;;
70367;SDS011;57789;53.868;10.728;2022-12-15T04:34:21;25.30;;;11.77;;
70367;SDS011;57789;53.868;10.728;2022-12-15T04:37:07;26.52;;;11.20;;
70367;SDS011;57789;53.868;10.728;2022-12-15T04:39:53;25.30;;;11.63;;
70367;SDS011;57789;53.868;10.728;2022-12-15T04:42:40;31.65;;;12.30;;
70367;SDS011;57789;53.868;10.728;2022-12-15T04:45:28;21.90;;;11.73;;
70367;SDS011;57789;53.868;10.728;2022-12-15T04:48:12;22.55;;;11.13;;
70367;SDS011;57789;53.868;10.728;2022-12-15T04:50:57;29.15;;;10.88;;
70367;SDS011;57789;53.868;10.728;2022-12-15T04:53:42;26.40;;;11.35;;
70367;SDS011;57789;53.868;10.728;2022-12-15T04:56:26;22.20;;;10.85;;
70367;SDS011;57789;53.868;10.728;2022-12-15T04:59:10;26.92;;;12.40;;
70367;SDS011;57789;53.868;10.728;2022-12-15T05:01:54;25.83;;;11.98;;
70367;SDS011;57789;53.868;10.728;2022-12-15T05:04:38;22.98;;;12.25;;
70367;SDS011;57789;53.868;10.728;2022-12-15T05:07:25;27.33;;;10.93;;
70367;SDS011;57789;53.868;10.728;2022-12-15T05:10:10;25.42;;;12.40;;
70367;SDS011;57789;53.868;10.728;2022-12-15T05:12:54;29.70;;;12.45;;
70367;SDS011;57789;53.868;10.728;2022-12-15T05:15:45;25.63;;;11.65;;
70367;SDS011;57789;53.868;10.728;2022-12-15T05:18:29;29.17;;;11.73;;
70367;SDS011;57789;53.868;10.728;2022-12-15T05:21:13;30.88;;;13.52;;
70367;SDS011;57789;53.868;10.728;2022-12-15T05:23:57;19.55;;;10.32;;
70367;SDS011;57789;53.868;10.728;2022-12-15T05:26:41;31.58;;;12.77;;
70367;SDS011;57789;53.868;10.728;2022-12-15T05:29:25;23.90;;;12.15;;
70367;SDS011;57789;53.868;10.728;2022-12-15T05:32:09;24.33;;;11.27;;
70367;SDS011;57789;53.868;10.728;2022-12-15T05:34:37;24.80;;;11.77;;
70367;SDS011;57789;53.868;10.728;2022-12-15T05:37:03;22.87;;;10.40;;
70367;SDS011;57789;53.868;10.728;2022-12-15T05:39:31;32.13;;;12.55;;
70367;SDS011;57789;53.868;10.728;2022-12-15T05:41:57;23.33;;;11.60;;
70367;SDS011;57789;53.868;10.728;2022-12-15T05:44:24;19.53;;;10.40;;
70367;SDS011;57789;53.868;10.728;2022-12-15T05:46:51;24.85;;;11.68;;
70367;SDS011;57789;53.868;10.728;2022-12-15T05:49:17;27.30;;;11.83;;
70367;SDS011;57789;53.868;10.728;2022-12-15T05:51:44;26.70;;;11.77;;
70367;SDS011;57789;53.868;10.728;2022-12-15T05:54:12;26.33;;;12.35;;
70367;SDS011;57789;53.868;10.728;2022-12-15T05:56:40;22.30;;;11.20;;
70367;SDS011;57789;53.868;10.728;2022-12-15T05:59:06;33.10;;;11.50;;
70367;SDS011;57789;53.868;10.728;2022-12-15T06:01:32;24.70;;;11.07;;
70367;SDS011;57789;53.868;10.728;2022-12-15T06:03:59;26.92;;;11.48;;
70367;SDS011;57789;53.868;10.728;2022-12-15T06:06:25;29.33;;;11.82;;
70367;SDS011;57789;53.868;10.728;2022-12-15T06:08:51;30.60;;;12.20;;
70367;SDS011;57789;53.868;10.728;2022-12-15T06:11:17;21.47;;;10.67;;
70367;SDS011;57789;53.868;10.728;2022-12-15T06:13:44;22.42;;;11.32;;
70367;SDS011;57789;53.868;10.728;2022-12-15T06:18:44;24.27;;;9.48;;
70367;SDS011;57789;53.868;10.728;2022-12-15T06:21:16;28.52;;;11.90;;
70367;SDS011;57789;53.868;10.728;2022-12-15T06:23:47;26.20;;;11.95;;
70367;SDS011;57789;53.868;10.728;2022-12-15T06:26:16;21.73;;;10.50;;
70367;SDS011;57789;53.868;10.728;2022-12-15T06:28:46;19.52;;;11.38;;
70367;SDS011;57789;53.868;10.728;2022-12-15T06:31:13;31.63;;;11.93;;
70367;SDS011;57789;53.868;10.728;2022-12-15T06:33:40;25.73;;;10.63;;
70367;SDS011;57789;53.868;10.728;2022-12-15T06:36:06;28.17;;;11.97;;
70367;SDS011;57789;53.868;10.728;2022-12-15T06:38:34;22.15;;;11.27;;
70367;SDS011;57789;53.868;10.728;2022-12-15T06:41:01;24.33;;;11.07;;
70367;SDS011;57789;53.868;10.728;2022-12-15T06:43:29;24.75;;;12.32;;
70367;SDS011;57789;53.868;10.728;2022-12-15T06:45:55;29.40;;;11.20;;
70367;SDS011;57789;53.868;10.728;2022-12-15T06:48:21;23.37;;;10.87;;
70367;SDS011;57789;53.868;10.728;2022-12-15T06:50:48;26.55;;;11.73;;
70367;SDS011;57789;53.868;10.728;2022-12-15T06:53:15;25.65;;;11.27;;
70367;SDS011;57789;53.868;10.728;2022-12-15T06:55:42;36.20;;;12.52;;
70367;SDS011;57789;53.868;10.728;2022-12-15T06:58:08;28.02;;;11.70;;
70367;SDS011;57789;53.868;10.728;2022-12-15T07:00:36;25.35;;;12.07;;
70367;SDS011;57789;53.868;10.728;2022-12-15T07:03:02;27.92;;;11.80;;
70367;SDS011;57789;53.868;10.728;2022-12-15T07:05:30;26.17;;;11.88;;
70367;SDS011;57789;53.868;10.728;2022-12-15T07:07:56;26.30;;;11.10;;
70367;SDS011;57789;53.868;10.728;2022-12-15T07:10:21;25.07;;;11.93;;
70367;SDS011;57789;53.868;10.728;2022-12-15T07:12:47;32.30;;;13.67;;
70367;SDS011;57789;53.868;10.728;2022-12-15T07:15:12;33.03;;;12.87;;
70367;SDS011;57789;53.868;10.728;2022-12-15T07:17:38;26.33;;;12.40;;
70367;SDS011;57789;53.868;10.728;2022-12-15T07:20:04;28.47;;;13.17;;
70367;SDS011;57789;53.868;10.728;2022-12-15T07:22:30;28.27;;;12.07;;
70367;SDS011;57789;53.868;10.728;2022-12-15T07:24:56;26.93;;;11.90;;
70367;SDS011;57789;53.868;10.728;2022-12-15T07:27:22;24.57;;;11.80;;
70367;SDS011;57789;53.868;10.728;2022-12-15T07:29:47;25.37;;;12.63;;
70367;SDS011;57789;53.868;10.728;2022-12-15T07:32:13;24.17;;;11.77;;
70367;SDS011;57789;53.868;10.728;2022-12-15T07:34:39;18.55;;;10.25;;
70367;SDS011;57789;53.868;10.728;2022-12-15T07:37:06;25.70;;;12.02;;
70367;SDS011;57789;53.868;10.728;2022-12-15T07:39:32;26.90;;;11.52;;
70367;SDS011;57789;53.868;10.728;2022-12-15T07:41:58;27.50;;;10.87;;
70367;SDS011;57789;53.868;10.728;2022-12-15T07:44:23;21.10;;;11.50;;
70367;SDS011;57789;53.868;10.728;2022-12-15T07:46:49;24.77;;;12.03;;
70367;SDS011;57789;53.868;10.728;2022-12-15T07:49:16;25.27;;;11.20;;
70367;SDS011;57789;53.868;10.728;2022-12-15T07:51:42;28.00;;;11.35;;
70367;SDS011;57789;53.868;10.728;2022-12-15T07:54:09;28.37;;;12.07;;
70367;SDS011;57789;53.868;10.728;2022-12-15T07:56:35;30.65;;;12.13;;
70367;SDS011;57789;53.868;10.728;2022-12-15T07:59:02;29.20;;;12.35;;
70367;SDS011;57789;53.868;10.728;2022-12-15T08:01:28;24.63;;;11.38;;
70367;SDS011;57789;53.868;10.728;2022-12-15T08:03:54;25.33;;;12.07;;
70367;SDS011;57789;53.868;10.728;2022-12-15T08:06:19;23.00;;;11.33;;
70367;SDS011;57789;53.868;10.728;2022-12-15T08:08:45;25.13;;;12.30;;
70367;SDS011;57789;53.868;10.728;2022-12-15T08:11:12;24.37;;;12.30;;
70367;SDS011;57789;53.868;10.728;2022-12-15T08:13:39;17.92;;;9.63;;
70367;SDS011;57789;53.868;10.728;2022-12-15T08:16:05;24.42;;;11.40;;
70367;SDS011;57789;53.868;10.728;2022-12-15T08:18:31;23.10;;;11.03;;
70367;SDS011;57789;53.868;10.728;2022-12-15T08:21:03;26.60;;;11.67;;
70367;SDS011;57789;53.868;10.728;2022-12-15T08:23:30;24.58;;;12.18;;
70367;SDS011;57789;53.868;10.728;2022-12-15T08:26:03;27.05;;;12.85;;
70367;SDS011;57789;53.868;10.728;2022-12-15T08:28:32;29.70;;;13.80;;
70367;SDS011;57789;53.868;10.728;2022-12-15T08:31:06;21.70;;;10.88;;
70367;SDS011;57789;53.868;10.728;2022-12-15T08:33:33;23.15;;;10.73;;
70367;SDS011;57789;53.868;10.728;2022-12-15T08:36:01;15.80;;;9.30;;
70367;SDS011;57789;53.868;10.728;2022-12-15T08:38:33;26.25;;;12.30;;
70367;SDS011;57789;53.868;10.728;2022-12-15T08:41:06;31.25;;;12.38;;
70367;SDS011;57789;53.868;10.728;2022-12-15T08:43:38;22.02;;;10.32;;
70367;SDS011;57789;53.868;10.728;2022-12-15T08:46:05;25.17;;;11.77;;
70367;SDS011;57789;53.868;10.728;2022-12-15T08:48:32;29.27;;;10.73;;
70367;SDS011;57789;53.868;10.728;2022-12-15T08:50:58;27.80;;;13.82;;
70367;SDS011;57789;53.868;10.728;2022-12-15T08:53:24;25.80;;;11.20;;
70367;SDS011;57789;53.868;10.728;2022-12-15T08:55:50;28.08;;;12.40;;
70367;SDS011;57789;53.868;10.728;2022-12-15T08:58:16;23.13;;;11.30;;
70367;SDS011;57789;53.868;10.728;2022-12-15T09:00:42;28.80;;;12.32;;
70367;SDS011;57789;53.868;10.728;2022-12-15T09:03:08;23.33;;;11.87;;
70367;SDS011;57789;53.868;10.728;2022-12-15T09:05:36;29.25;;;11.30;;
70367;SDS011;57789;53.868;10.728;2022-12-15T09:08:03;30.60;;;13.00;;
70367;SDS011;57789;53.868;10.728;2022-12-15T09:10:29;20.60;;;11.50;;
70367;SDS011;57789;53.868;10.728;2022-12-15T09:12:55;24.97;;;12.43;;
70367;SDS011;57789;53.868;10.728;2022-12-15T09:15:21;34.40;;;11.93;;
70367;SDS011;57789;53.868;10.728;2022-12-15T09:17:49;26.50;;;11.55;;
70367;SDS011;57789;53.868;10.728;2022-12-15T09:20:15;21.57;;;11.17;;
70367;SDS011;57789;53.868;10.728;2022-12-15T09:22:40;25.37;;;13.07;;
70367;SDS011;57789;53.868;10.728;2022-12-15T09:25:06;24.90;;;10.40;;
70367;SDS011;57789;53.868;10.728;2022-12-15T09:27:32;23.23;;;10.60;;
70367;SDS011;57789;53.868;10.728;2022-12-15T09:29:59;24.90;;;10.25;;
70367;SDS011;57789;53.868;10.728;2022-12-15T09:32:25;29.88;;;13.15;;
70367;SDS011;57789;53.868;10.728;2022-12-15T09:34:51;22.87;;;11.47;;
70367;SDS011;57789;53.868;10.728;2022-12-15T09:37:17;23.35;;;11.55;;
70367;SDS011;57789;53.868;10.728;2022-12-15T09:39:43;28.77;;;11.68;;
70367;SDS011;57789;53.868;10.728;2022-12-15T09:42:21;23.33;;;11.40;;
70367;SDS011;57789;53.868;10.728;2022-12-15T09:44:49;21.85;;;11.50;;
70367;SDS011;57789;53.868;10.728;2022-12-15T09:47:31;28.35;;;12.55;;
70367;SDS011;57789;53.868;10.728;2022-12-15T09:50:04;21.80;;;10.50;;
70367;SDS011;57789;53.868;10.728;2022-12-15T09:52:44;24.42;;;12.88;;
70367;SDS011;57789;53.868;10.728;2022-12-15T09:55:31;22.90;;;10.75;;
70367;SDS011;57789;53.868;10.728;2022-12-15T10:00:45;27.55;;;12.60;;
70367;SDS011;57789;53.868;10.728;2022-12-15T10:06:22;20.85;;;10.98;;
70367;SDS011;57789;53.868;10.728;2022-12-15T10:08:58;25.92;;;11.75;;
70367;SDS011;57789;53.868;10.728;2022-12-15T10:14:16;22.95;;;11.50;;
70367;SDS011;57789;53.868;10.728;2022-12-15T10:17:16;20.65;;;10.90;;
70367;SDS011;57789;53.868;10.728;2022-12-15T10:22:36;22.02;;;11.55;;
70367;SDS011;57789;53.868;10.728;2022-12-15T10:25:35;20.70;;;11.43;;
70367;SDS011;57789;53.868;10.728;2022-12-15T10:30:24;26.42;;;11.30;;
70367;SDS011;57789;53.868;10.728;2022-12-15T10:32:52;21.30;;;12.30;;
70367;SDS011;57789;53.868;10.728;2022-12-15T10:35:34;23.48;;;11.90;;
70367;SDS011;57789;53.868;10.728;2022-12-15T10:38:02;28.33;;;12.48;;
70367;SDS011;57789;53.868;10.728;2022-12-15T10:40:49;23.92;;;12.40;;
70367;SDS011;57789;53.868;10.728;2022-12-15T10:43:33;24.85;;;10.77;;
70367;SDS011;57789;53.868;10.728;2022-12-15T10:48:43;28.30;;;13.40;;
70367;SDS011;57789;53.868;10.728;2022-12-15T10:51:17;23.40;;;11.07;;
70367;SDS011;57789;53.868;10.728;2022-12-15T10:54:08;22.63;;;12.80;;
70367;SDS011;57789;53.868;10.728;2022-12-15T10:59:22;29.23;;;13.70;;
70367;SDS011;57789;53.868;10.728;2022-12-15T11:01:48;20.70;;;11.73;;
70367;SDS011;57789;53.868;10.728;2022-12-15T11:04:28;23.80;;;12.35;;
70367;SDS011;57789;53.868;10.728;2022-12-15T11:06:56;29.92;;;11.20;;
70367;SDS011;57789;53.868;10.728;2022-12-15T11:09:26;27.83;;;13.07;;
70367;SDS011;57789;53.868;10.728;2022-12-15T11:11:58;25.20;;;12.80;;
70367;SDS011;57789;53.868;10.728;2022-12-15T11:14:45;23.65;;;10.73;;
70367;SDS011;57789;53.868;10.728;2022-12-15T11:17:16;23.33;;;11.82;;
70367;SDS011;57789;53.868;10.728;2022-12-15T11:22:20;19.90;;;11.23;;
70367;SDS011;57789;53.868;10.728;2022-12-15T11:25:00;22.95;;;11.75;;
70367;SDS011;57789;53.868;10.728;2022-12-15T11:27:35;20.55;;;10.90;;
70367;SDS011;57789;53.868;10.728;2022-12-15T11:30:17;25.95;;;12.68;;
70367;SDS011;57789;53.868;10.728;2022-12-15T11:32:49;23.40;;;12.30;;
70367;SDS011;57789;53.868;10.728;2022-12-15T11:35:27;18.83;;;10.23;;
70367;SDS011;57789;53.868;10.728;2022-12-15T11:38:12;21.07;;;11.37;;
70367;SDS011;57789;53.868;10.728;2022-12-15T11:46:47;21.13;;;12.17;;
70367;SDS011;57789;53.868;10.728;2022-12-15T11:52:03;18.33;;;10.77;;
70367;SDS011;57789;53.868;10.728;2022-12-15T11:54:53;16.77;;;10.27;;
70367;SDS011;57789;53.868;10.728;2022-12-15T12:00:15;18.60;;;10.77;;
70367;SDS011;57789;53.868;10.728;2022-12-15T12:02:50;25.63;;;13.30;;
70367;SDS011;57789;53.868;10.728;2022-12-15T12:11:12;22.43;;;12.63;;
70367;SDS011;57789;53.868;10.728;2022-12-15T12:19:04;30.17;;;12.50;;
70367;SDS011;57789;53.868;10.728;2022-12-15T12:21:38;17.90;;;10.87;;
70367;SDS011;57789;53.868;10.728;2022-12-15T12:24:20;19.83;;;10.83;;
70367;SDS011;57789;53.868;10.728;2022-12-15T12:27:00;21.10;;;11.23;;
70367;SDS011;57789;53.868;10.728;2022-12-15T12:38:08;20.97;;;12.67;;
70367;SDS011;57789;53.868;10.728;2022-12-15T12:40:39;25.30;;;12.13;;
70367;SDS011;57789;53.868;10.728;2022-12-15T12:43:38;20.00;;;10.87;;
70367;SDS011;57789;53.868;10.728;2022-12-15T12:53:49;24.97;;;11.87;;
70367;SDS011;57789;53.868;10.728;2022-12-15T12:56:32;22.30;;;11.83;;
70367;SDS011;57789;53.868;10.728;2022-12-15T13:01:54;23.30;;;11.93;;
70367;SDS011;57789;53.868;10.728;2022-12-15T13:04:42;24.43;;;12.40;;
70367;SDS011;57789;53.868;10.728;2022-12-15T13:07:34;19.83;;;11.30;;
70367;SDS011;57789;53.868;10.728;2022-12-15T13:10:14;20.10;;;11.90;;
70367;SDS011;57789;53.868;10.728;2022-12-15T13:12:46;27.77;;;13.90;;
70367;SDS011;57789;53.868;10.728;2022-12-15T13:20:36;23.53;;;11.73;;
70367;SDS011;57789;53.868;10.728;2022-12-15T13:44:38;25.87;;;12.70;;
70367;SDS011;57789;53.868;10.728;2022-12-15T13:47:30;18.60;;;11.37;;
70367;SDS011;57789;53.868;10.728;2022-12-15T13:50:06;24.63;;;13.03;;
70367;SDS011;57789;53.868;10.728;2022-12-15T13:55:18;25.10;;;12.50;;
70367;SDS011;57789;53.868;10.728;2022-12-15T14:00:51;17.20;;;10.80;;
70367;SDS011;57789;53.868;10.728;2022-12-15T14:03:18;20.53;;;11.20;;
70367;SDS011;57789;53.868;10.728;2022-12-15T14:05:51;18.90;;;11.27;;
70367;SDS011;57789;53.868;10.728;2022-12-15T14:08:37;22.93;;;11.30;;
70367;SDS011;57789;53.868;10.728;2022-12-15T14:11:02;23.53;;;10.33;;
70367;SDS011;57789;53.868;10.728;2022-12-15T14:13:32;16.07;;;9.67;;
70367;SDS011;57789;53.868;10.728;2022-12-15T14:16:19;17.53;;;9.53;;
70367;SDS011;57789;53.868;10.728;2022-12-15T14:19:01;19.90;;;10.50;;
70367;SDS011;57789;53.868;10.728;2022-12-15T14:21:28;18.87;;;10.50;;
70367;SDS011;57789;53.868;10.728;2022-12-15T14:23:54;21.13;;;11.67;;
70367;SDS011;57789;53.868;10.728;2022-12-15T14:26:24;26.03;;;12.10;;
70367;SDS011;57789;53.868;10.728;2022-12-15T14:28:58;21.10;;;12.00;;
70367;SDS011;57789;53.868;10.728;2022-12-15T14:31:25;19.20;;;11.80;;
70367;SDS011;57789;53.868;10.728;2022-12-15T14:33:57;22.47;;;12.30;;
70367;SDS011;57789;53.868;10.728;2022-12-15T14:36:27;17.53;;;10.40;;
70367;SDS011;57789;53.868;10.728;2022-12-15T14:39:04;21.90;;;12.10;;
70367;SDS011;57789;53.868;10.728;2022-12-15T14:41:37;36.20;;;13.20;;
70367;SDS011;57789;53.868;10.728;2022-12-15T14:44:42;25.83;;;11.33;;
70367;SDS011;57789;53.868;10.728;2022-12-15T14:47:14;24.37;;;11.03;;
70367;SDS011;57789;53.868;10.728;2022-12-15T14:49:46;24.67;;;12.10;;
70367;SDS011;57789;53.868;10.728;2022-12-15T14:54:58;21.07;;;10.90;;
70367;SDS011;57789;53.868;10.728;2022-12-15T14:57:28;21.10;;;11.40;;
70367;SDS011;57789;53.868;10.728;2022-12-15T15:00:27;17.00;;;10.43;;
70367;SDS011;57789;53.868;10.728;2022-12-15T15:03:16;28.50;;;11.27;;
70367;SDS011;57789;53.868;10.728;2022-12-15T15:08:29;16.80;;;11.90;;
70367;SDS011;57789;53.868;10.728;2022-12-15T15:11:00;14.30;;;10.30;;
70367;SDS011;57789;53.868;10.728;2022-12-15T15:13:45;25.77;;;13.00;;
70367;SDS011;57789;53.868;10.728;2022-12-15T15:16:15;21.10;;;12.77;;
70367;SDS011;57789;53.868;10.728;2022-12-15T15:18:42;19.50;;;11.47;;
70367;SDS011;57789;53.868;10.728;2022-12-15T15:21:17;24.37;;;12.13;;
70367;SDS011;57789;53.868;10.728;2022-12-15T15:26:38;29.30;;;12.37;;
70367;SDS011;57789;53.868;10.728;2022-12-15T15:29:28;29.30;;;14.13;;
70367;SDS011;57789;53.868;10.728;2022-12-15T15:32:05;22.07;;;12.80;;
70367;SDS011;57789;53.868;10.728;2022-12-15T15:34:39;26.80;;;15.13;;
70367;SDS011;57789;53.868;10.728;2022-12-15T15:37:10;26.57;;;13.87;;
70367;SDS011;57789;53.868;10.728;2022-12-15T15:39:44;25.10;;;14.07;;
70367;SDS011;57789;53.868;10.728;2022-12-15T15:42:12;26.50;;;15.30;;
70367;SDS011;57789;53.868;10.728;2022-12-15T15:44:38;32.37;;;15.37;;
70367;SDS011;57789;53.868;10.728;2022-12-15T15:47:04;27.60;;;14.20;;
70367;SDS011;57789;53.868;10.728;2022-12-15T15:49:39;21.17;;;11.60;;
70367;SDS011;57789;53.868;10.728;2022-12-15T15:52:05;24.53;;;14.63;;
70367;SDS011;57789;53.868;10.728;2022-12-15T15:54:31;23.07;;;13.13;;
70367;SDS011;57789;53.868;10.728;2022-12-15T15:56:59;22.40;;;13.53;;
70367;SDS011;57789;53.868;10.728;2022-12-15T15:59:25;24.87;;;12.93;;
70367;SDS011;57789;53.868;10.728;2022-12-15T16:01:53;25.53;;;13.80;;
70367;SDS011;57789;53.868;10.728;2022-12-15T16:04:19;20.50;;;12.33;;
70367;SDS011;57789;53.868;10.728;2022-12-15T16:06:46;24.57;;;13.30;;
70367;SDS011;57789;53.868;10.728;2022-12-15T16:09:13;26.30;;;15.30;;
70367;SDS011;57789;53.868;10.728;2022-12-15T16:11:39;26.10;;;12.80;;
70367;SDS011;57789;53.868;10.728;2022-12-15T16:14:09;19.90;;;11.90;;
70367;SDS011;57789;53.868;10.728;2022-12-15T16:16:39;21.50;;;11.23;;
70367;SDS011;57789;53.868;10.728;2022-12-15T16:19:05;21.87;;;12.50;;
70367;SDS011;57789;53.868;10.728;2022-12-15T16:21:31;30.00;;;12.73;;
70367;SDS011;57789;53.868;10.728;2022-12-15T16:23:59;22.83;;;11.97;;
70367;SDS011;57789;53.868;10.728;2022-12-15T16:26:31;21.60;;;12.10;;
70367;SDS011;57789;53.868;10.728;2022-12-15T16:28:57;27.07;;;11.83;;
70367;SDS011;57789;53.868;10.728;2022-12-15T16:31:27;23.13;;;11.90;;
70367;SDS011;57789;53.868;10.728;2022-12-15T16:33:54;19.60;;;11.63;;
70367;SDS011;57789;53.868;10.728;2022-12-15T16:36:20;18.67;;;11.40;;
70367;SDS011;57789;53.868;10.728;2022-12-15T16:38:46;22.13;;;11.27;;
70367;SDS011;57789;53.868;10.728;2022-12-15T16:41:12;18.57;;;11.63;;
70367;SDS011;57789;53.868;10.728;2022-12-15T16:43:40;24.57;;;10.97;;